Time,TemperatureF,DewpointF,PressureIn,WindDirection,WindDirectionDegrees,WindSpeedMPH,WindSpeedGustMPH,Humidity,HourlyPrecipIn,Conditions,Clouds,dailyrainin,SolarRadiationWatts/m^2,SoftwareType,DateUTC
2013-10-22 00:03:00,56.6,53.4,30.05,WSW,242,0.0,0.0,89,0.00,,---,0.00,0.00,VWS V14.01,2013-10-21 22:03:00,
2013-10-22 00:13:00,56.3,53.1,30.05,WSW,241,0.0,0.0,89,0.00,,---,0.00,0.00,VWS V14.01,2013-10-21 22:13:00,
2013-10-22 00:23:00,55.9,52.7,30.05,WSW,241,0.0,0.0,89,0.00,,---,0.00,0.00,VWS V14.01,2013-10-21 22:23:00,
2013-10-22 00:28:00,55.8,52.6,30.05,WSW,242,0.0,0.0,89,0.00,,---,0.00,0.00,VWS V14.01,2013-10-21 22:28:00,
2013-10-22 00:33:00,55.6,52.4,30.05,WSW,242,0.0,0.0,89,0.00,,---,0.00,0.00,VWS V14.01,2013-10-21 22:33:00,
2013-10-22 00:39:00,55.4,52.2,30.05,WSW,241,0.0,0.0,89,0.00,,---,0.00,0.00,VWS V14.01,2013-10-21 22:39:00,
2013-10-22 00:48:00,54.9,52.0,30.05,WSW,242,0.0,0.0,90,0.00,,---,0.00,0.00,VWS V14.01,2013-10-21 22:48:00,
2013-10-22 00:53:00,54.8,51.9,30.05,WSW,242,0.0,0.0,90,0.00,,---,0.00,0.00,VWS V14.01,2013-10-21 22:53:00,
2013-10-22 00:58:00,54.7,51.8,30.05,WSW,242,0.0,0.0,90,0.00,,---,0.00,0.00,VWS V14.01,2013-10-21 22:58:00,
2013-10-22 01:08:00,54.5,51.9,30.05,WSW,242,0.0,0.0,91,0.00,,---,0.00,0.00,VWS V14.01,2013-10-21 23:08:00,
2013-10-22 01:18:00,54.4,51.8,30.05,WSW,241,0.0,0.0,91,0.00,,---,0.00,0.00,VWS V14.01,2013-10-21 23:18:00,
2013-10-22 01:28:00,54.1,51.5,30.05,WSW,241,0.0,0.0,91,0.00,,---,0.00,0.00,VWS V14.01,2013-10-21 23:28:00,
2013-10-22 01:39:00,53.7,51.1,30.05,WSW,241,0.0,0.0,91,0.00,,---,0.00,0.00,VWS V14.01,2013-10-21 23:39:00,
2013-10-22 01:48:00,53.4,50.8,30.05,WSW,242,0.0,0.0,91,0.00,,---,0.00,0.00,VWS V14.01,2013-10-21 23:48:00,
2013-10-22 01:53:00,53.2,50.7,30.05,WSW,241,0.0,0.0,91,0.00,,---,0.00,0.00,VWS V14.01,2013-10-21 23:53:00,
2013-10-22 01:58:00,53.0,50.5,30.05,WSW,241,0.0,0.0,91,0.00,,---,0.00,0.00,VWS V14.01,2013-10-21 23:58:00,
2013-10-22 02:03:00,52.8,50.2,30.05,WSW,242,0.0,0.0,91,0.00,,---,0.00,0.00,VWS V14.01,2013-10-22 00:03:00,
2013-10-22 02:13:00,52.5,50.0,30.05,WSW,242,0.0,0.0,91,0.00,,---,0.00,0.00,VWS V14.01,2013-10-22 00:13:00,
2013-10-22 02:18:00,52.4,50.2,30.05,WSW,242,0.0,0.0,92,0.00,,---,0.00,0.00,VWS V14.01,2013-10-22 00:18:00,
2013-10-22 02:28:00,52.1,49.8,30.05,WSW,241,0.0,0.0,92,0.00,,---,0.00,0.00,VWS V14.01,2013-10-22 00:28:00,
2013-10-22 02:33:00,52.0,49.8,30.05,WSW,241,0.0,0.0,92,0.00,,---,0.00,0.00,VWS V14.01,2013-10-22 00:33:00,
2013-10-22 02:38:00,51.9,49.7,30.05,WSW,242,0.0,0.0,92,0.00,,---,0.00,0.00,VWS V14.01,2013-10-22 00:38:00,
2013-10-22 02:48:00,51.7,49.5,30.05,WSW,241,0.0,0.0,92,0.00,,---,0.00,0.00,VWS V14.01,2013-10-22 00:48:00,
2013-10-22 02:58:00,51.5,49.3,30.05,WSW,242,0.0,0.0,92,0.00,,---,0.00,0.00,VWS V14.01,2013-10-22 00:58:00,
2013-10-22 03:03:00,51.4,49.2,30.05,WSW,242,0.0,0.0,92,0.00,,---,0.00,0.00,VWS V14.01,2013-10-22 01:03:00,
2013-10-22 03:08:00,51.3,49.1,30.05,WSW,241,0.0,0.0,92,0.00,,---,0.00,0.00,VWS V14.01,2013-10-22 01:08:00,
2013-10-22 03:13:00,51.1,48.9,30.05,WSW,242,0.0,0.0,92,0.00,,---,0.00,0.00,VWS V14.01,2013-10-22 01:13:00,
2013-10-22 03:18:00,51.0,48.8,30.05,WSW,242,0.0,0.0,92,0.00,,---,0.00,0.00,VWS V14.01,2013-10-22 01:18:00,
2013-10-22 03:20:00,50.3,48.1,30.05,WSW,242,0.0,0.0,92,0.00,,---,0.00,0.00,VWS V14.01,2013-10-22 01:20:00,
2013-10-22 03:28:00,50.8,48.6,30.04,WSW,242,0.0,0.0,92,0.00,,---,0.00,0.00,VWS V14.01,2013-10-22 01:28:00,
2013-10-22 03:30:00,50.3,48.4,30.04,WSW,241,0.0,0.0,93,0.00,,---,0.00,0.00,VWS V14.01,2013-10-22 01:30:00,
2013-10-22 03:33:00,50.7,48.5,30.04,WSW,242,0.0,0.0,92,0.00,,---,0.00,0.00,VWS V14.01,2013-10-22 01:33:00,
2013-10-22 03:35:00,50.2,48.3,30.04,WSW,242,0.0,0.0,93,0.00,,---,0.00,0.00,VWS V14.01,2013-10-22 01:35:00,
2013-10-22 03:38:00,50.6,48.4,30.05,WSW,242,0.0,0.0,92,0.00,,---,0.00,0.00,VWS V14.01,2013-10-22 01:38:00,
2013-10-22 03:48:00,50.5,48.3,30.05,WSW,241,0.0,0.0,92,0.00,,---,0.00,0.00,VWS V14.01,2013-10-22 01:48:00,
2013-10-22 03:50:00,50.1,48.2,30.05,WSW,242,0.0,0.0,93,0.00,,---,0.00,0.00,VWS V14.01,2013-10-22 01:50:00,
2013-10-22 03:53:00,50.4,48.2,30.05,WSW,242,0.0,0.0,92,0.00,,---,0.00,0.00,VWS V14.01,2013-10-22 01:53:00,
2013-10-22 04:03:00,50.3,48.4,30.05,WSW,242,0.0,0.0,93,0.00,,---,0.00,0.00,VWS V14.01,2013-10-22 02:03:00,
2013-10-22 04:05:00,50.3,48.4,30.04,WSW,241,2.0,2.0,93,0.00,,---,0.00,0.00,VWS V14.01,2013-10-22 02:05:00,
2013-10-22 04:18:00,50.1,48.2,30.04,WSW,241,0.0,0.0,93,0.00,,---,0.00,0.00,VWS V14.01,2013-10-22 02:18:00,
2013-10-22 04:23:00,50.1,48.2,30.05,WSW,242,0.0,0.0,93,0.00,,---,0.00,0.00,VWS V14.01,2013-10-22 02:23:00,
2013-10-22 04:33:00,50.2,48.3,30.05,WSW,242,0.0,0.0,93,0.00,,---,0.00,0.00,VWS V14.01,2013-10-22 02:33:00,
2013-10-22 04:38:00,50.3,48.4,30.04,WSW,242,2.0,2.0,93,0.00,,---,0.00,0.00,VWS V14.01,2013-10-22 02:38:00,
2013-10-22 04:40:00,50.0,48.3,30.04,WSW,241,0.0,0.0,94,0.00,,---,0.00,0.00,VWS V14.01,2013-10-22 02:40:00,
2013-10-22 04:48:00,50.3,48.6,30.04,WSW,242,0.0,0.0,94,0.00,,---,0.00,0.00,VWS V14.01,2013-10-22 02:48:00,
2013-10-22 04:58:00,50.1,48.2,30.04,WSW,241,0.0,0.0,93,0.00,,---,0.00,0.00,VWS V14.01,2013-10-22 02:58:00,
2013-10-22 05:03:00,50.1,48.4,30.04,WSW,242,0.0,0.0,94,0.00,,---,0.00,0.00,VWS V14.01,2013-10-22 03:03:00,
2013-10-22 05:05:00,49.9,48.2,30.04,WSW,242,0.0,0.0,94,0.00,,---,0.00,0.00,VWS V14.01,2013-10-22 03:05:00,
2013-10-22 05:08:00,50.0,48.3,30.04,WSW,242,0.0,0.0,94,0.00,,---,0.00,0.00,VWS V14.01,2013-10-22 03:08:00,
2013-10-22 05:23:00,49.9,48.2,30.05,WSW,241,0.0,0.0,94,0.00,,---,0.00,0.00,VWS V14.01,2013-10-22 03:23:00,
2013-10-22 05:25:00,49.9,48.2,30.05,WSW,242,0.0,0.0,94,0.00,,---,0.00,0.00,VWS V14.01,2013-10-22 03:25:00,
2013-10-22 05:28:00,49.9,48.2,30.05,WSW,242,0.0,0.0,94,0.00,,---,0.00,0.00,VWS V14.01,2013-10-22 03:28:00,
2013-10-22 05:30:00,49.9,48.2,30.04,WSW,242,0.0,0.0,94,0.00,,---,0.00,0.00,VWS V14.01,2013-10-22 03:30:00,
2013-10-22 05:33:00,49.9,48.2,30.05,WSW,242,0.0,0.0,94,0.00,,---,0.00,0.00,VWS V14.01,2013-10-22 03:33:00,
2013-10-22 05:35:00,49.8,48.2,30.04,WSW,242,0.0,0.0,94,0.00,,---,0.00,0.00,VWS V14.01,2013-10-22 03:35:00,
2013-10-22 05:38:00,49.9,48.2,30.04,WSW,241,0.0,0.0,94,0.00,,---,0.00,0.00,VWS V14.01,2013-10-22 03:38:00,
2013-10-22 05:40:00,49.8,48.2,30.04,WSW,242,0.0,0.0,94,0.00,,---,0.00,0.00,VWS V14.01,2013-10-22 03:40:00,
2013-10-22 05:45:00,49.7,48.0,30.04,WSW,242,0.0,0.0,94,0.00,,---,0.00,0.00,VWS V14.01,2013-10-22 03:45:00,
2013-10-22 05:48:00,49.9,48.2,30.04,WSW,242,0.0,0.0,94,0.00,,---,0.00,0.00,VWS V14.01,2013-10-22 03:48:00,
2013-10-22 05:50:00,49.6,48.0,30.04,WSW,241,0.0,0.0,94,0.00,,---,0.00,0.00,VWS V14.01,2013-10-22 03:50:00,
2013-10-22 05:53:00,49.9,48.2,30.05,WSW,241,0.0,0.0,94,0.00,,---,0.00,0.00,VWS V14.01,2013-10-22 03:53:00,
2013-10-22 05:55:00,49.6,48.0,30.04,WSW,241,0.0,0.0,94,0.00,,---,0.00,0.00,VWS V14.01,2013-10-22 03:55:00,
2013-10-22 05:58:00,49.9,48.2,30.05,WSW,241,0.0,0.0,94,0.00,,---,0.00,0.00,VWS V14.01,2013-10-22 03:58:00,
2013-10-22 06:00:00,49.5,47.8,30.04,WSW,242,0.0,0.0,94,0.00,,---,0.00,0.00,VWS V14.01,2013-10-22 04:00:00,
2013-10-22 06:05:00,49.4,47.8,30.04,WSW,242,0.0,0.0,94,0.00,,---,0.00,0.00,VWS V14.01,2013-10-22 04:05:00,
2013-10-22 06:10:00,49.3,47.7,30.04,WSW,242,0.0,0.0,94,0.00,,---,0.00,0.00,VWS V14.01,2013-10-22 04:10:00,
2013-10-22 06:15:00,49.2,47.5,30.04,WSW,242,0.0,0.0,94,0.00,,---,0.00,0.00,VWS V14.01,2013-10-22 04:15:00,
2013-10-22 06:20:00,49.2,47.5,30.04,WSW,242,0.0,0.0,94,0.00,,---,0.00,0.00,VWS V14.01,2013-10-22 04:20:00,
2013-10-22 06:25:00,49.2,47.5,30.04,WSW,241,0.0,0.0,94,0.00,,---,0.00,0.00,VWS V14.01,2013-10-22 04:25:00,
2013-10-22 06:30:00,49.1,47.5,30.04,WSW,241,0.0,0.0,94,0.00,,---,0.00,0.00,VWS V14.01,2013-10-22 04:30:00,
2013-10-22 06:35:00,49.1,47.5,30.04,WSW,242,0.0,0.0,94,0.00,,---,0.00,0.00,VWS V14.01,2013-10-22 04:35:00,
2013-10-22 06:40:00,49.1,47.5,30.04,WSW,242,0.0,0.0,94,0.00,,---,0.00,0.00,VWS V14.01,2013-10-22 04:40:00,
2013-10-22 06:45:00,49.1,47.5,30.04,WSW,242,0.0,0.0,94,0.00,,---,0.00,0.00,VWS V14.01,2013-10-22 04:45:00,
2013-10-22 06:50:00,49.1,47.5,30.04,WSW,242,0.0,0.0,94,0.00,,---,0.00,0.00,VWS V14.01,2013-10-22 04:50:00,
2013-10-22 06:55:00,49.1,47.5,30.04,WSW,241,0.0,0.0,94,0.00,,---,0.00,0.00,VWS V14.01,2013-10-22 04:55:00,
2013-10-22 07:00:00,49.1,47.5,30.04,WSW,241,0.0,0.0,94,0.00,,---,0.00,5.00,VWS V14.01,2013-10-22 05:00:00,
2013-10-22 07:05:00,49.1,47.5,30.04,WSW,241,0.0,0.0,94,0.00,,---,0.00,7.00,VWS V14.01,2013-10-22 05:05:00,
2013-10-22 07:10:00,49.1,47.5,30.04,WSW,242,0.0,0.0,94,0.01,,---,0.01,11.00,VWS V14.01,2013-10-22 05:10:00,
2013-10-22 07:15:00,49.1,47.7,30.04,WSW,242,0.0,0.0,95,0.01,,---,0.01,16.00,VWS V14.01,2013-10-22 05:15:00,
2013-10-22 07:20:00,49.1,47.7,30.04,WSW,242,0.0,0.0,95,0.01,,---,0.01,18.00,VWS V14.01,2013-10-22 05:20:00,
2013-10-22 07:25:00,49.2,47.8,30.04,WSW,242,0.0,0.0,95,0.01,,---,0.01,21.00,VWS V14.01,2013-10-22 05:25:00,
2013-10-22 07:30:00,49.2,47.8,30.05,WSW,241,0.0,0.0,95,0.01,,---,0.01,28.00,VWS V14.01,2013-10-22 05:30:00,
2013-10-22 07:35:00,49.2,47.8,30.05,WSW,242,0.0,0.0,95,0.01,,---,0.01,33.00,VWS V14.01,2013-10-22 05:35:00,
2013-10-22 07:40:00,49.3,47.9,30.05,WSW,242,0.0,0.0,95,0.01,,---,0.01,39.00,VWS V14.01,2013-10-22 05:40:00,
2013-10-22 07:45:00,49.4,48.0,30.05,WSW,241,0.0,0.0,95,0.01,,---,0.01,35.00,VWS V14.01,2013-10-22 05:45:00,
2013-10-22 07:50:00,49.5,48.1,30.05,WSW,241,0.0,0.0,95,0.01,,---,0.01,33.00,VWS V14.01,2013-10-22 05:50:00,
2013-10-22 07:55:00,49.5,48.1,30.05,WSW,242,0.0,0.0,95,0.01,,---,0.01,32.00,VWS V14.01,2013-10-22 05:55:00,
2013-10-22 08:00:00,49.6,48.2,30.04,WSW,242,0.0,0.0,95,0.01,,---,0.01,33.00,VWS V14.01,2013-10-22 06:00:00,
2013-10-22 08:05:00,49.7,48.3,30.04,WSW,242,0.0,0.0,95,0.01,,---,0.01,35.00,VWS V14.01,2013-10-22 06:05:00,
2013-10-22 08:10:00,49.7,48.3,30.04,WSW,241,0.0,0.0,95,0.01,,---,0.01,39.00,VWS V14.01,2013-10-22 06:10:00,
2013-10-22 08:15:00,49.8,48.4,30.04,WSW,242,1.0,1.0,95,0.00,,---,0.01,49.00,VWS V14.01,2013-10-22 06:15:00,
2013-10-22 08:20:00,50.0,48.6,30.04,WSW,242,0.0,0.0,95,0.00,,---,0.01,67.00,VWS V14.01,2013-10-22 06:20:00,
2013-10-22 08:25:00,50.1,48.7,30.04,WSW,242,0.0,0.0,95,0.00,,---,0.01,93.00,VWS V14.01,2013-10-22 06:25:00,
2013-10-22 08:30:00,50.2,48.8,30.04,WSW,241,0.0,0.0,95,0.00,,---,0.01,105.00,VWS V14.01,2013-10-22 06:30:00,
2013-10-22 08:35:00,50.3,48.9,30.04,WSW,242,0.0,0.0,95,0.00,,---,0.01,102.00,VWS V14.01,2013-10-22 06:35:00,
2013-10-22 08:40:00,50.5,49.1,30.04,WSW,241,0.0,2.0,95,0.00,,---,0.01,100.00,VWS V14.01,2013-10-22 06:40:00,
2013-10-22 08:45:00,50.6,49.2,30.04,WSW,241,0.0,0.0,95,0.00,,---,0.01,100.00,VWS V14.01,2013-10-22 06:45:00,
2013-10-22 08:50:00,50.7,49.3,30.04,WSW,241,0.0,0.0,95,0.00,,---,0.01,113.00,VWS V14.01,2013-10-22 06:50:00,
2013-10-22 08:55:00,51.1,49.7,30.04,WSW,242,0.0,0.0,95,0.00,,---,0.01,134.00,VWS V14.01,2013-10-22 06:55:00,
2013-10-22 09:00:00,51.5,50.1,30.04,WSW,241,0.0,0.0,95,0.00,,---,0.01,132.00,VWS V14.01,2013-10-22 07:00:00,
2013-10-22 09:05:00,51.8,50.4,30.04,WSW,241,0.0,0.0,95,0.00,,---,0.01,111.00,VWS V14.01,2013-10-22 07:05:00,
2013-10-22 09:10:00,52.0,50.3,30.04,WSW,242,0.0,0.0,94,0.00,,---,0.01,111.00,VWS V14.01,2013-10-22 07:10:00,
2013-10-22 09:15:00,52.2,50.5,30.04,WSW,241,0.0,0.0,94,0.00,,---,0.01,120.00,VWS V14.01,2013-10-22 07:15:00,
2013-10-22 09:20:00,52.4,50.7,30.04,WSW,241,0.0,0.0,94,0.00,,---,0.01,135.00,VWS V14.01,2013-10-22 07:20:00,
2013-10-22 09:25:00,53.0,51.3,30.04,WSW,242,0.0,0.0,94,0.00,,---,0.01,183.00,VWS V14.01,2013-10-22 07:25:00,
2013-10-22 09:30:00,53.5,51.5,30.04,WSW,242,0.0,0.0,93,0.00,,---,0.01,213.00,VWS V14.01,2013-10-22 07:30:00,
2013-10-22 09:35:00,53.7,51.7,30.04,WSW,242,0.0,0.0,93,0.00,,---,0.01,209.00,VWS V14.01,2013-10-22 07:35:00,
2013-10-22 09:40:00,53.8,51.5,30.04,WSW,241,0.0,0.0,92,0.00,,---,0.01,367.00,VWS V14.01,2013-10-22 07:40:00,
2013-10-22 09:45:00,54.3,51.7,30.04,WSW,242,0.0,0.0,91,0.00,,---,0.01,364.00,VWS V14.01,2013-10-22 07:45:00,
2013-10-22 09:50:00,54.5,51.9,30.04,WSW,241,0.0,0.0,91,0.00,,---,0.01,197.00,VWS V14.01,2013-10-22 07:50:00,
2013-10-22 09:55:00,54.9,52.0,30.04,WSW,241,0.0,0.0,90,0.00,,---,0.01,199.00,VWS V14.01,2013-10-22 07:55:00,
2013-10-22 10:00:00,55.4,52.5,30.04,WSW,242,0.0,0.0,90,0.00,,---,0.01,174.00,VWS V14.01,2013-10-22 08:00:00,
2013-10-22 10:05:00,55.7,52.2,30.04,WSW,242,0.0,0.0,88,0.00,,---,0.01,202.00,VWS V14.01,2013-10-22 08:05:00,
2013-10-22 10:10:00,55.9,52.4,30.04,WSW,242,0.0,0.0,88,0.00,,---,0.01,149.00,VWS V14.01,2013-10-22 08:10:00,
2013-10-22 10:15:00,55.9,52.4,30.03,WSW,241,0.0,0.0,88,0.00,,---,0.01,158.00,VWS V14.01,2013-10-22 08:15:00,
2013-10-22 10:20:00,56.6,53.1,30.03,WSW,242,0.0,0.0,88,0.00,,---,0.01,234.00,VWS V14.01,2013-10-22 08:20:00,
2013-10-22 10:25:00,56.8,52.7,30.03,WSW,242,0.0,0.0,86,0.00,,---,0.01,230.00,VWS V14.01,2013-10-22 08:25:00,
2013-10-22 10:30:00,56.8,52.7,30.03,WSW,242,0.0,0.0,86,0.00,,---,0.01,404.00,VWS V14.01,2013-10-22 08:30:00,
2013-10-22 10:35:00,57.5,53.3,30.03,WSW,241,0.0,0.0,86,0.00,,---,0.01,466.00,VWS V14.01,2013-10-22 08:35:00,
2013-10-22 10:40:00,57.9,53.4,30.03,WSW,242,0.0,1.0,85,0.00,,---,0.01,327.00,VWS V14.01,2013-10-22 08:40:00,
2013-10-22 10:45:00,58.7,53.9,30.03,WSW,242,1.0,1.0,84,0.00,,---,0.01,348.00,VWS V14.01,2013-10-22 08:45:00,
2013-10-22 10:50:00,59.0,54.2,30.03,WSW,241,0.0,0.0,84,0.00,,---,0.01,250.00,VWS V14.01,2013-10-22 08:50:00,
2013-10-22 10:55:00,59.3,54.2,30.03,WSW,241,0.0,0.0,83,0.00,,---,0.01,209.00,VWS V14.01,2013-10-22 08:55:00,
2013-10-22 11:00:00,60.0,54.8,30.02,WSW,242,0.0,0.0,83,0.00,,---,0.01,209.00,VWS V14.01,2013-10-22 09:00:00,
2013-10-22 11:05:00,60.6,55.1,30.02,WSW,242,0.0,0.0,82,0.00,,---,0.01,236.00,VWS V14.01,2013-10-22 09:05:00,
2013-10-22 11:10:00,60.6,54.8,30.02,WSW,241,0.0,0.0,81,0.00,,---,0.01,288.00,VWS V14.01,2013-10-22 09:10:00,
2013-10-22 11:15:00,61.3,55.1,30.02,East,91,3.0,5.0,80,0.00,,---,0.01,287.00,VWS V14.01,2013-10-22 09:15:00,
2013-10-22 11:20:00,61.0,54.5,30.02,ESE,104,0.0,4.0,79,0.00,,---,0.01,304.00,VWS V14.01,2013-10-22 09:20:00,
2013-10-22 11:25:00,61.7,55.1,30.02,ENE,71,0.0,0.0,79,0.00,,---,0.01,290.00,VWS V14.01,2013-10-22 09:25:00,
2013-10-22 11:30:00,62.7,55.8,30.01,East,80,0.0,4.0,78,0.00,,---,0.01,508.00,VWS V14.01,2013-10-22 09:30:00,
2013-10-22 11:35:00,63.4,56.1,30.01,NNE,30,0.0,4.0,77,0.00,,---,0.01,462.00,VWS V14.01,2013-10-22 09:35:00,
2013-10-22 11:40:00,63.9,56.2,30.01,ENE,62,0.0,4.0,76,0.00,,---,0.01,439.00,VWS V14.01,2013-10-22 09:40:00,
2013-10-22 11:45:00,64.1,56.0,30.01,ENE,70,2.0,5.0,75,0.00,,---,0.01,434.00,VWS V14.01,2013-10-22 09:45:00,
2013-10-22 11:50:00,64.1,56.0,30.01,NE,35,0.0,4.0,75,0.00,,---,0.01,434.00,VWS V14.01,2013-10-22 09:50:00,
2013-10-22 11:55:00,64.2,56.1,30.01,NE,47,2.0,5.0,75,0.00,,---,0.01,457.00,VWS V14.01,2013-10-22 09:55:00,
2013-10-22 12:00:00,64.8,56.3,30.01,ENE,66,3.0,4.0,74,0.00,,---,0.01,446.00,VWS V14.01,2013-10-22 10:00:00,
2013-10-22 12:05:00,65.2,56.3,30.01,ENE,65,0.0,1.0,73,0.00,,---,0.01,343.00,VWS V14.01,2013-10-22 10:05:00,
2013-10-22 12:10:00,65.2,56.3,30.01,ENE,72,2.0,2.0,73,0.00,,---,0.01,237.00,VWS V14.01,2013-10-22 10:10:00,
2013-10-22 12:15:00,65.2,56.3,30.00,East,86,0.0,1.0,73,0.00,,---,0.01,450.00,VWS V14.01,2013-10-22 10:15:00,
2013-10-22 12:20:00,65.5,56.6,30.00,East,82,3.0,3.0,73,0.00,,---,0.01,446.00,VWS V14.01,2013-10-22 10:20:00,
2013-10-22 12:25:00,66.4,57.5,30.00,East,80,0.0,1.0,73,0.00,,---,0.01,478.00,VWS V14.01,2013-10-22 10:25:00,
2013-10-22 12:30:00,66.2,56.9,29.99,NNE,22,0.0,4.0,72,0.00,,---,0.01,487.00,VWS V14.01,2013-10-22 10:30:00,
2013-10-22 12:35:00,66.4,57.1,29.99,ENE,76,0.0,1.0,72,0.00,,---,0.01,499.00,VWS V14.01,2013-10-22 10:35:00,
2013-10-22 12:40:00,66.5,56.8,29.99,ESE,105,0.0,6.0,71,0.00,,---,0.01,380.00,VWS V14.01,2013-10-22 10:40:00,
2013-10-22 12:45:00,66.9,57.2,29.99,East,87,0.0,1.0,71,0.00,,---,0.01,473.00,VWS V14.01,2013-10-22 10:45:00,
2013-10-22 12:50:00,67.6,57.9,29.99,NE,53,0.0,4.0,71,0.00,,---,0.01,471.00,VWS V14.01,2013-10-22 10:50:00,
2013-10-22 12:55:00,66.8,56.3,29.99,East,86,0.0,3.0,69,0.00,,---,0.01,464.00,VWS V14.01,2013-10-22 10:55:00,
2013-10-22 13:00:00,67.2,57.1,29.99,ENE,67,0.0,4.0,70,0.00,,---,0.01,339.00,VWS V14.01,2013-10-22 11:00:00,
2013-10-22 13:05:00,67.6,57.5,29.99,ENE,61,0.0,1.0,70,0.00,,---,0.01,554.00,VWS V14.01,2013-10-22 11:05:00,
2013-10-22 13:10:00,68.3,57.8,29.99,ENE,62,0.0,5.0,69,0.00,,---,0.01,545.00,VWS V14.01,2013-10-22 11:10:00,
2013-10-22 13:15:00,69.1,58.1,29.98,NE,39,0.0,4.0,68,0.00,,---,0.01,529.00,VWS V14.01,2013-10-22 11:15:00,
2013-10-22 13:20:00,68.9,58.7,29.98,NNE,21,0.0,10.0,70,0.00,,---,0.01,513.00,VWS V14.01,2013-10-22 11:20:00,
2013-10-22 13:25:00,68.2,58.5,29.98,NE,46,5.0,5.0,71,0.00,,---,0.01,251.00,VWS V14.01,2013-10-22 11:25:00,
2013-10-22 13:35:00,68.7,58.9,29.98,NE,47,0.0,6.0,71,0.00,,---,0.01,536.00,VWS V14.01,2013-10-22 11:35:00,
2013-10-22 13:40:00,68.3,58.5,29.98,NE,49,4.0,9.0,71,0.00,,---,0.01,403.00,VWS V14.01,2013-10-22 11:40:00,
2013-10-22 13:45:00,68.8,59.4,29.96,NNE,29,2.0,7.0,72,0.00,,---,0.01,336.00,VWS V14.01,2013-10-22 11:45:00,
2013-10-22 13:55:00,67.6,59.0,29.96,NNE,15,1.0,6.0,74,0.00,,---,0.01,241.00,VWS V14.01,2013-10-22 11:55:00,
2013-10-22 14:00:00,67.6,59.0,29.96,ENE,63,4.0,7.0,74,0.00,,---,0.01,162.00,VWS V14.01,2013-10-22 12:00:00,
2013-10-22 14:05:00,67.6,59.0,29.96,NE,50,3.0,5.0,74,0.00,,---,0.01,230.00,VWS V14.01,2013-10-22 12:05:00,
2013-10-22 14:08:00,68.3,58.5,29.98,NE,44,3.0,3.0,71,0.00,,---,0.01,330.00,VWS V14.01,2013-10-22 12:08:00,
2013-10-22 14:15:00,68.3,59.3,29.96,ENE,65,5.0,6.0,73,0.00,,---,0.01,308.00,VWS V14.01,2013-10-22 12:15:00,
2013-10-22 14:20:00,67.9,58.9,29.96,ENE,75,5.0,7.0,73,0.00,,---,0.01,299.00,VWS V14.01,2013-10-22 12:20:00,
2013-10-22 14:25:00,68.3,59.3,29.96,NE,41,4.0,11.0,73,0.00,,---,0.01,290.00,VWS V14.01,2013-10-22 12:25:00,
2013-10-22 14:28:00,68.2,58.5,29.96,NE,40,3.0,9.0,71,0.00,,---,0.01,216.00,VWS V14.01,2013-10-22 12:28:00,
2013-10-22 14:30:00,68.4,59.0,29.95,East,88,3.0,8.0,72,0.00,,---,0.01,281.00,VWS V14.01,2013-10-22 12:30:00,
2013-10-22 14:35:00,68.4,59.4,29.95,NE,45,1.0,7.0,73,0.00,,---,0.01,272.00,VWS V14.01,2013-10-22 12:35:00,
2013-10-22 14:45:00,69.1,59.7,29.95,NNE,29,3.0,9.0,72,0.00,,---,0.01,248.00,VWS V14.01,2013-10-22 12:45:00,
2013-10-22 14:48:00,68.1,59.1,29.96,NE,49,3.0,4.0,73,0.00,,---,0.01,325.00,VWS V14.01,2013-10-22 12:48:00,
2013-10-22 14:55:00,69.4,60.4,29.95,NE,52,0.0,3.0,73,0.00,,---,0.01,236.00,VWS V14.01,2013-10-22 12:55:00,
2013-10-22 15:00:00,69.2,60.2,29.94,East,85,4.0,4.0,73,0.00,,---,0.01,227.00,VWS V14.01,2013-10-22 13:00:00,
2013-10-22 15:05:00,70.0,60.6,29.94,East,84,0.0,1.0,72,0.00,,---,0.01,216.00,VWS V14.01,2013-10-22 13:05:00,
2013-10-22 15:10:00,70.6,60.3,29.94,ENE,67,3.0,7.0,70,0.00,,---,0.01,209.00,VWS V14.01,2013-10-22 13:10:00,
2013-10-22 15:18:00,68.6,59.6,29.95,ENE,67,0.0,7.0,73,0.00,,---,0.01,260.00,VWS V14.01,2013-10-22 13:18:00,
2013-10-22 15:28:00,68.8,59.8,29.95,NE,48,4.0,6.0,73,0.00,,---,0.01,244.00,VWS V14.01,2013-10-22 13:28:00,
2013-10-22 15:30:00,70.3,60.1,29.94,ESE,113,4.0,6.0,70,0.00,,---,0.01,171.00,VWS V14.01,2013-10-22 13:30:00,
2013-10-22 15:40:00,70.0,59.8,29.94,East,84,0.0,7.0,70,0.00,,---,0.01,137.00,VWS V14.01,2013-10-22 13:40:00,
2013-10-22 15:50:00,69.5,60.1,29.93,East,82,5.0,5.0,72,0.00,,---,0.01,44.00,VWS V14.01,2013-10-22 13:50:00,
2013-10-22 15:53:00,71.1,60.8,29.94,NE,53,0.0,3.0,70,0.00,,---,0.01,199.00,VWS V14.01,2013-10-22 13:53:00,
2013-10-22 15:55:00,69.2,60.2,29.93,East,79,0.0,2.0,73,0.00,,---,0.01,56.00,VWS V14.01,2013-10-22 13:55:00,
2013-10-22 15:58:00,71.3,61.0,29.94,ENE,76,0.0,4.0,70,0.00,,---,0.01,188.00,VWS V14.01,2013-10-22 13:58:00,
2013-10-22 16:03:00,70.7,60.5,29.94,East,101,1.0,9.0,70,0.00,,---,0.01,179.00,VWS V14.01,2013-10-22 14:03:00,
2013-10-22 16:13:00,70.3,60.1,29.94,East,96,10.0,10.0,70,0.00,,---,0.01,76.00,VWS V14.01,2013-10-22 14:13:00,
2013-10-22 16:15:00,68.5,60.3,29.93,East,81,0.0,3.0,75,0.00,,---,0.01,53.00,VWS V14.01,2013-10-22 14:15:00,
2013-10-22 16:20:00,68.5,60.6,29.93,East,81,0.0,0.0,76,0.00,,---,0.01,46.00,VWS V14.01,2013-10-22 14:20:00,
2013-10-22 16:23:00,69.8,60.0,29.93,East,81,2.0,5.0,71,0.00,,---,0.01,39.00,VWS V14.01,2013-10-22 14:23:00,
2013-10-22 16:38:00,68.9,60.3,29.93,East,79,0.0,4.0,74,0.00,,---,0.01,60.00,VWS V14.01,2013-10-22 14:38:00,
2013-10-22 16:40:00,67.6,59.4,29.93,ESE,117,0.0,3.0,75,0.00,,---,0.01,30.00,VWS V14.01,2013-10-22 14:40:00,
2013-10-22 16:48:00,68.6,60.4,29.93,East,80,1.0,4.0,75,0.00,,---,0.01,56.00,VWS V14.01,2013-10-22 14:48:00,
2013-10-22 17:03:00,68.3,60.5,29.93,East,81,0.0,0.0,76,0.00,,---,0.01,39.00,VWS V14.01,2013-10-22 15:03:00,
2013-10-22 17:08:00,67.9,60.4,29.93,East,81,0.0,0.0,77,0.00,,---,0.01,33.00,VWS V14.01,2013-10-22 15:08:00,
2013-10-22 17:10:00,67.0,58.1,29.93,ESE,116,3.0,5.0,73,0.00,,---,0.01,9.00,VWS V14.01,2013-10-22 15:10:00,
2013-10-22 17:13:00,67.6,60.1,29.93,ESE,118,0.0,6.0,77,0.00,,---,0.01,32.00,VWS V14.01,2013-10-22 15:13:00,
2013-10-22 17:20:00,66.4,57.9,29.93,ESE,117,0.0,0.0,74,0.00,,---,0.01,0.00,VWS V14.01,2013-10-22 15:20:00,
2013-10-22 17:23:00,67.6,59.0,29.93,ESE,113,2.0,5.0,74,0.00,,---,0.01,25.00,VWS V14.01,2013-10-22 15:23:00,
2013-10-22 17:25:00,65.8,57.7,29.93,ESE,117,0.0,2.0,75,0.00,,---,0.01,0.00,VWS V14.01,2013-10-22 15:25:00,
2013-10-22 17:28:00,67.6,58.7,29.93,SE,126,3.0,6.0,73,0.00,,---,0.01,19.00,VWS V14.01,2013-10-22 15:28:00,
2013-10-22 17:30:00,65.2,57.5,29.93,ESE,117,2.0,4.0,76,0.00,,---,0.01,0.00,VWS V14.01,2013-10-22 15:30:00,
2013-10-22 17:33:00,67.4,58.5,29.93,SE,126,0.0,5.0,73,0.00,,---,0.01,16.00,VWS V14.01,2013-10-22 15:33:00,
2013-10-22 17:38:00,67.2,58.3,29.93,SE,127,3.0,6.0,73,0.00,,---,0.01,14.00,VWS V14.01,2013-10-22 15:38:00,
2013-10-22 17:40:00,64.4,57.4,29.93,ESE,115,2.0,4.0,78,0.00,,---,0.01,0.00,VWS V14.01,2013-10-22 15:40:00,
2013-10-22 17:53:00,66.9,58.0,29.93,ESE,117,0.0,0.0,73,0.00,,---,0.01,5.00,VWS V14.01,2013-10-22 15:53:00,
2013-10-22 18:13:00,64.7,57.3,29.93,ESE,117,2.0,3.0,77,0.00,,---,0.01,0.00,VWS V14.01,2013-10-22 16:13:00,
2013-10-22 18:23:00,64.0,57.0,29.93,ESE,115,0.0,3.0,78,0.00,,---,0.01,0.00,VWS V14.01,2013-10-22 16:23:00,
2013-10-22 18:28:00,63.6,57.0,29.93,ESE,116,0.0,0.0,79,0.00,,---,0.01,0.00,VWS V14.01,2013-10-22 16:28:00,
2013-10-22 18:33:00,63.2,56.9,29.93,ESE,115,3.0,4.0,80,0.00,,---,0.01,0.00,VWS V14.01,2013-10-22 16:33:00,
2013-10-22 18:38:00,62.8,56.5,29.93,ESE,110,1.0,4.0,80,0.00,,---,0.01,0.00,VWS V14.01,2013-10-22 16:38:00,
2013-10-22 18:48:00,62.1,56.5,29.93,ESE,110,0.0,2.0,82,0.00,,---,0.01,0.00,VWS V14.01,2013-10-22 16:48:00,
2013-10-22 18:53:00,61.8,56.2,29.93,ESE,110,0.0,3.0,82,0.00,,---,0.01,0.00,VWS V14.01,2013-10-22 16:53:00,
2013-10-22 19:03:00,61.1,56.2,29.93,ESE,110,0.0,3.0,84,0.00,,---,0.01,0.00,VWS V14.01,2013-10-22 17:03:00,
2013-10-22 19:08:00,60.7,56.2,29.93,ESE,110,1.0,2.0,85,0.00,,---,0.01,0.00,VWS V14.01,2013-10-22 17:08:00,
2013-10-22 19:18:00,60.2,56.0,29.93,ESE,110,0.0,3.0,86,0.00,,---,0.01,0.00,VWS V14.01,2013-10-22 17:18:00,
2013-10-22 19:23:00,60.0,55.8,29.93,ESE,110,0.0,0.0,86,0.00,,---,0.01,0.00,VWS V14.01,2013-10-22 17:23:00,
2013-10-22 19:33:00,60.2,55.7,29.93,ESE,115,0.0,3.0,85,0.00,,---,0.01,0.00,VWS V14.01,2013-10-22 17:33:00,
2013-10-22 19:39:00,60.7,55.8,29.93,ESE,116,0.0,0.0,84,0.00,,---,0.01,0.00,VWS V14.01,2013-10-22 17:39:00,
2013-10-22 19:48:00,61.1,55.2,29.93,SSE,148,5.0,6.0,81,0.00,,---,0.01,0.00,VWS V14.01,2013-10-22 17:48:00,
2013-10-22 19:53:00,61.3,54.7,29.93,East,95,0.0,5.0,79,0.00,,---,0.01,0.00,VWS V14.01,2013-10-22 17:53:00,
2013-10-22 19:58:00,61.5,54.2,29.93,SE,129,9.0,11.0,77,0.00,,---,0.01,0.00,VWS V14.01,2013-10-22 17:58:00,
2013-10-22 20:00:00,60.4,53.5,29.93,SSE,157,0.0,6.0,78,0.00,,---,0.01,0.00,VWS V14.01,2013-10-22 18:00:00,
2013-10-22 20:03:00,61.6,54.3,29.93,SE,142,4.0,10.0,77,0.00,,---,0.01,0.00,VWS V14.01,2013-10-22 18:03:00,
2013-10-22 20:08:00,61.6,54.0,29.92,SSE,149,5.0,9.0,76,0.00,,---,0.01,0.00,VWS V14.01,2013-10-22 18:08:00,
2013-10-22 20:13:00,61.4,53.8,29.92,SE,135,0.0,4.0,76,0.00,,---,0.01,0.00,VWS V14.01,2013-10-22 18:13:00,
2013-10-22 20:18:00,61.2,53.6,29.92,SE,132,5.0,6.0,76,0.00,,---,0.01,0.00,VWS V14.01,2013-10-22 18:18:00,
2013-10-22 20:23:00,61.0,53.8,29.93,SSW,209,0.0,0.0,77,0.00,,---,0.01,0.00,VWS V14.01,2013-10-22 18:23:00,
2013-10-22 20:28:00,60.7,53.5,29.93,SE,140,0.0,3.0,77,0.00,,---,0.01,0.00,VWS V14.01,2013-10-22 18:28:00,
2013-10-22 20:43:00,60.2,53.3,29.93,SSE,155,0.0,4.0,78,0.00,,---,0.01,0.00,VWS V14.01,2013-10-22 18:43:00,
2013-10-22 20:48:00,60.1,53.2,29.93,SSE,155,0.0,0.0,78,0.00,,---,0.01,0.00,VWS V14.01,2013-10-22 18:48:00,
2013-10-22 20:53:00,60.0,53.1,29.93,SSE,155,1.0,2.0,78,0.00,,---,0.01,0.00,VWS V14.01,2013-10-22 18:53:00,
2013-10-22 20:58:00,59.8,52.9,29.93,SSE,165,0.0,3.0,78,0.00,,---,0.01,0.00,VWS V14.01,2013-10-22 18:58:00,
2013-10-22 21:08:00,59.5,53.0,29.93,SSE,159,0.0,1.0,79,0.00,,---,0.01,0.00,VWS V14.01,2013-10-22 19:08:00,
2013-10-22 21:18:00,59.1,52.6,29.93,SSE,159,0.0,0.0,79,0.00,,---,0.01,0.00,VWS V14.01,2013-10-22 19:18:00,
2013-10-22 21:28:00,59.0,52.8,29.93,SSE,149,0.0,0.0,80,0.00,,---,0.01,0.00,VWS V14.01,2013-10-22 19:28:00,
2013-10-22 21:33:00,59.0,52.8,29.93,SSE,149,2.0,3.0,80,0.00,,---,0.01,0.00,VWS V14.01,2013-10-22 19:33:00,
2013-10-22 21:39:00,59.0,52.8,29.93,SSE,149,0.0,1.0,80,0.00,,---,0.01,0.00,VWS V14.01,2013-10-22 19:39:00,
2013-10-22 21:48:00,58.7,52.9,29.93,SSE,149,0.0,0.0,81,0.00,,---,0.01,0.00,VWS V14.01,2013-10-22 19:48:00,
2013-10-22 21:53:00,58.4,52.6,29.93,SSE,149,0.0,0.0,81,0.00,,---,0.01,0.00,VWS V14.01,2013-10-22 19:53:00,
2013-10-22 22:08:00,58.0,52.9,29.94,SSE,149,2.0,2.0,83,0.00,,---,0.01,0.00,VWS V14.01,2013-10-22 20:08:00,
2013-10-22 22:13:00,57.9,52.8,29.94,SSE,149,3.0,3.0,83,0.00,,---,0.01,0.00,VWS V14.01,2013-10-22 20:13:00,
2013-10-22 22:18:00,57.8,52.3,29.94,SE,130,0.0,4.0,82,0.00,,---,0.01,0.00,VWS V14.01,2013-10-22 20:18:00,
2013-10-22 22:23:00,57.6,52.5,29.94,SE,130,2.0,3.0,83,0.00,,---,0.01,0.00,VWS V14.01,2013-10-22 20:23:00,
2013-10-22 22:33:00,57.2,52.4,29.94,SE,129,0.0,0.0,84,0.00,,---,0.01,0.00,VWS V14.01,2013-10-22 20:33:00,
2013-10-22 22:39:00,57.0,52.2,29.94,SE,130,0.0,1.0,84,0.00,,---,0.01,0.00,VWS V14.01,2013-10-22 20:39:00,
2013-10-22 22:48:00,56.9,52.4,29.94,SE,130,2.0,3.0,85,0.00,,---,0.01,0.00,VWS V14.01,2013-10-22 20:48:00,
2013-10-22 22:53:00,56.7,52.2,29.94,ENE,61,3.0,4.0,85,0.00,,---,0.01,0.00,VWS V14.01,2013-10-22 20:53:00,
2013-10-22 22:58:00,56.6,52.2,29.94,ENE,64,0.0,4.0,85,0.00,,---,0.01,0.00,VWS V14.01,2013-10-22 20:58:00,
2013-10-22 23:08:00,56.3,52.2,29.93,ENE,65,2.0,3.0,86,0.00,,---,0.01,0.00,VWS V14.01,2013-10-22 21:08:00,
2013-10-22 23:18:00,56.0,52.2,29.93,ENE,64,0.0,0.0,87,0.00,,---,0.01,0.00,VWS V14.01,2013-10-22 21:18:00,
2013-10-22 23:23:00,55.9,52.1,29.94,ENE,65,0.0,0.0,87,0.00,,---,0.01,0.00,VWS V14.01,2013-10-22 21:23:00,
2013-10-22 23:33:00,55.6,51.8,29.94,ENE,64,0.0,2.0,87,0.00,,---,0.01,0.00,VWS V14.01,2013-10-22 21:33:00,
2013-10-22 23:39:00,55.5,52.0,29.94,ENE,65,0.0,0.0,88,0.00,,---,0.01,0.00,VWS V14.01,2013-10-22 21:39:00,
2013-10-22 23:48:00,55.2,51.7,29.94,ENE,65,2.0,2.0,88,0.00,,---,0.01,0.00,VWS V14.01,2013-10-22 21:48:00,
2013-10-22 23:53:00,55.0,51.5,29.94,ENE,64,0.0,2.0,88,0.00,,---,0.01,0.00,VWS V14.01,2013-10-22 21:53:00,